sensor_id;sensor_type;location;lat;lon;timestamp;P1;durP1;ratioP1;P2;durP2;ratioP2
26038;SDS011;13815;52.374;4.882;2023-04-23T00:02:08;0.00;;;0.00;;
26038;SDS011;13815;52.374;4.882;2023-04-23T00:04:38;0.00;;;0.00;;
26038;SDS011;13815;52.374;4.882;2023-04-23T00:07:04;5.63;;;0.52;;
26038;SDS011;13815;52.374;4.882;2023-04-23T00:09:30;0.00;;;0.00;;
26038;SDS011;13815;52.374;4.882;2023-04-23T00:11:57;0.00;;;0.00;;
26038;SDS011;13815;52.374;4.882;2023-04-23T00:14:23;0.00;;;0.00;;
26038;SDS011;13815;52.374;4.882;2023-04-23T00:16:50;0.00;;;0.00;;
26038;SDS011;13815;52.374;4.882;2023-04-23T00:19:17;4.43;;;0.40;;
26038;SDS011;13815;52.374;4.882;2023-04-23T00:21:43;0.00;;;0.00;;
26038;SDS011;13815;52.374;4.882;2023-04-23T00:24:09;0.00;;;0.00;;
26038;SDS011;13815;52.374;4.882;2023-04-23T00:26:34;6.03;;;0.47;;
26038;SDS011;13815;52.374;4.882;2023-04-23T00:28:59;0.00;;;0.00;;
26038;SDS011;13815;52.374;4.882;2023-04-23T00:31:25;0.00;;;0.00;;
26038;SDS011;13815;52.374;4.882;2023-04-23T00:33:51;0.00;;;0.00;;
26038;SDS011;13815;52.374;4.882;2023-04-23T00:36:35;0.00;;;0.00;;
26038;SDS011;13815;52.374;4.882;2023-04-23T00:39:01;0.00;;;0.00;;
26038;SDS011;13815;52.374;4.882;2023-04-23T00:41:26;0.00;;;0.00;;
26038;SDS011;13815;52.374;4.882;2023-04-23T00:43:52;5.40;;;0.47;;
26038;SDS011;13815;52.374;4.882;2023-04-23T00:46:18;0.00;;;0.00;;
26038;SDS011;13815;52.374;4.882;2023-04-23T00:48:44;0.00;;;0.00;;
26038;SDS011;13815;52.374;4.882;2023-04-23T00:51:10;0.00;;;0.00;;
26038;SDS011;13815;52.374;4.882;2023-04-23T00:53:35;0.00;;;0.00;;
26038;SDS011;13815;52.374;4.882;2023-04-23T00:56:01;0.00;;;0.00;;
26038;SDS011;13815;52.374;4.882;2023-04-23T00:58:28;0.00;;;0.00;;
26038;SDS011;13815;52.374;4.882;2023-04-23T01:00:53;0.00;;;0.00;;
26038;SDS011;13815;52.374;4.882;2023-04-23T01:03:19;1.20;;;0.10;;
26038;SDS011;13815;52.374;4.882;2023-04-23T01:05:46;0.00;;;0.00;;
26038;SDS011;13815;52.374;4.882;2023-04-23T01:08:13;0.00;;;0.00;;
26038;SDS011;13815;52.374;4.882;2023-04-23T01:10:40;5.82;;;0.47;;
26038;SDS011;13815;52.374;4.882;2023-04-23T01:13:06;0.63;;;0.00;;
26038;SDS011;13815;52.374;4.882;2023-04-23T01:15:32;0.00;;;0.00;;
26038;SDS011;13815;52.374;4.882;2023-04-23T01:17:57;0.00;;;0.00;;
26038;SDS011;13815;52.374;4.882;2023-04-23T01:20:23;0.00;;;0.00;;
26038;SDS011;13815;52.374;4.882;2023-04-23T01:22:49;0.47;;;0.05;;
26038;SDS011;13815;52.374;4.882;2023-04-23T01:25:14;0.00;;;0.00;;
26038;SDS011;13815;52.374;4.882;2023-04-23T01:27:40;0.00;;;0.00;;
26038;SDS011;13815;52.374;4.882;2023-04-23T01:30:05;8.50;;;0.75;;
26038;SDS011;13815;52.374;4.882;2023-04-23T01:32:31;0.00;;;0.00;;
26038;SDS011;13815;52.374;4.882;2023-04-23T01:34:57;0.00;;;0.00;;
26038;SDS011;13815;52.374;4.882;2023-04-23T01:37:25;0.00;;;0.00;;
26038;SDS011;13815;52.374;4.882;2023-04-23T01:39:51;0.00;;;0.00;;
26038;SDS011;13815;52.374;4.882;2023-04-23T01:42:17;0.00;;;0.00;;
26038;SDS011;13815;52.374;4.882;2023-04-23T01:44:42;0.00;;;0.00;;
26038;SDS011;13815;52.374;4.882;2023-04-23T01:47:08;0.00;;;0.00;;
26038;SDS011;13815;52.374;4.882;2023-04-23T01:49:36;0.00;;;0.00;;
26038;SDS011;13815;52.374;4.882;2023-04-23T01:52:04;0.00;;;0.00;;
26038;SDS011;13815;52.374;4.882;2023-04-23T01:54:30;0.00;;;0.00;;
26038;SDS011;13815;52.374;4.882;2023-04-23T01:56:55;0.00;;;0.00;;
26038;SDS011;13815;52.374;4.882;2023-04-23T01:59:21;0.00;;;0.00;;
26038;SDS011;13815;52.374;4.882;2023-04-23T02:01:46;0.00;;;0.00;;
26038;SDS011;13815;52.374;4.882;2023-04-23T02:04:13;0.00;;;0.00;;
26038;SDS011;13815;52.374;4.882;2023-04-23T02:06:39;0.00;;;0.00;;
26038;SDS011;13815;52.374;4.882;2023-04-23T02:09:06;0.00;;;0.00;;
26038;SDS011;13815;52.374;4.882;2023-04-23T02:11:31;0.00;;;0.00;;
26038;SDS011;13815;52.374;4.882;2023-04-23T02:13:59;0.00;;;0.00;;
26038;SDS011;13815;52.374;4.882;2023-04-23T02:16:25;2.55;;;0.22;;
26038;SDS011;13815;52.374;4.882;2023-04-23T02:18:52;0.00;;;0.00;;
26038;SDS011;13815;52.374;4.882;2023-04-23T02:21:17;0.65;;;0.05;;
26038;SDS011;13815;52.374;4.882;2023-04-23T02:23:43;0.00;;;0.00;;
26038;SDS011;13815;52.374;4.882;2023-04-23T02:26:08;0.00;;;0.00;;
26038;SDS011;13815;52.374;4.882;2023-04-23T02:28:33;0.00;;;0.00;;
26038;SDS011;13815;52.374;4.882;2023-04-23T02:30:59;0.00;;;0.00;;
26038;SDS011;13815;52.374;4.882;2023-04-23T02:33:24;0.00;;;0.00;;
26038;SDS011;13815;52.374;4.882;2023-04-23T02:35:50;2.40;;;0.25;;
26038;SDS011;13815;52.374;4.882;2023-04-23T02:38:15;0.00;;;0.00;;
26038;SDS011;13815;52.374;4.882;2023-04-23T02:40:41;0.00;;;0.00;;
26038;SDS011;13815;52.374;4.882;2023-04-23T02:43:07;3.08;;;0.22;;
26038;SDS011;13815;52.374;4.882;2023-04-23T02:45:33;0.00;;;0.00;;
26038;SDS011;13815;52.374;4.882;2023-04-23T02:47:58;0.00;;;0.00;;
26038;SDS011;13815;52.374;4.882;2023-04-23T02:50:23;0.00;;;0.00;;
26038;SDS011;13815;52.374;4.882;2023-04-23T02:52:48;0.00;;;0.00;;
26038;SDS011;13815;52.374;4.882;2023-04-23T02:55:14;0.00;;;0.00;;
26038;SDS011;13815;52.374;4.882;2023-04-23T02:57:40;0.00;;;0.00;;
26038;SDS011;13815;52.374;4.882;2023-04-23T03:00:06;0.00;;;0.00;;
26038;SDS011;13815;52.374;4.882;2023-04-23T03:02:32;0.00;;;0.00;;
26038;SDS011;13815;52.374;4.882;2023-04-23T03:04:57;0.00;;;0.00;;
26038;SDS011;13815;52.374;4.882;2023-04-23T03:07:23;0.00;;;0.00;;
26038;SDS011;13815;52.374;4.882;2023-04-23T03:09:48;8.00;;;0.68;;
26038;SDS011;13815;52.374;4.882;2023-04-23T03:12:13;0.00;;;0.00;;
26038;SDS011;13815;52.374;4.882;2023-04-23T03:14:39;0.00;;;0.00;;
26038;SDS011;13815;52.374;4.882;2023-04-23T03:17:04;0.00;;;0.00;;
26038;SDS011;13815;52.374;4.882;2023-04-23T03:19:30;0.00;;;0.00;;
26038;SDS011;13815;52.374;4.882;2023-04-23T03:21:55;0.00;;;0.00;;
26038;SDS011;13815;52.374;4.882;2023-04-23T03:24:21;0.50;;;0.10;;
26038;SDS011;13815;52.374;4.882;2023-04-23T03:26:46;0.00;;;0.00;;
26038;SDS011;13815;52.374;4.882;2023-04-23T03:29:11;5.30;;;0.43;;
26038;SDS011;13815;52.374;4.882;2023-04-23T03:31:37;0.00;;;0.00;;
26038;SDS011;13815;52.374;4.882;2023-04-23T03:34:02;0.00;;;0.00;;
26038;SDS011;13815;52.374;4.882;2023-04-23T03:36:30;5.05;;;0.40;;
26038;SDS011;13815;52.374;4.882;2023-04-23T03:38:56;0.00;;;0.00;;
26038;SDS011;13815;52.374;4.882;2023-04-23T03:41:26;0.00;;;0.00;;
26038;SDS011;13815;52.374;4.882;2023-04-23T03:43:54;0.00;;;0.00;;
26038;SDS011;13815;52.374;4.882;2023-04-23T03:46:19;0.00;;;0.00;;
26038;SDS011;13815;52.374;4.882;2023-04-23T03:48:44;0.00;;;0.00;;
26038;SDS011;13815;52.374;4.882;2023-04-23T03:51:10;0.00;;;0.00;;
26038;SDS011;13815;52.374;4.882;2023-04-23T03:53:35;0.00;;;0.00;;
26038;SDS011;13815;52.374;4.882;2023-04-23T03:56:00;0.00;;;0.00;;
26038;SDS011;13815;52.374;4.882;2023-04-23T03:58:26;0.00;;;0.00;;
26038;SDS011;13815;52.374;4.882;2023-04-23T04:00:51;0.00;;;0.00;;
26038;SDS011;13815;52.374;4.882;2023-04-23T04:03:17;2.55;;;0.20;;
26038;SDS011;13815;52.374;4.882;2023-04-23T04:05:42;0.00;;;0.00;;
26038;SDS011;13815;52.374;4.882;2023-04-23T04:08:08;0.00;;;0.00;;
26038;SDS011;13815;52.374;4.882;2023-04-23T04:10:33;6.47;;;0.52;;
26038;SDS011;13815;52.374;4.882;2023-04-23T04:12:59;0.00;;;0.00;;
26038;SDS011;13815;52.374;4.882;2023-04-23T04:15:24;0.55;;;0.05;;
26038;SDS011;13815;52.374;4.882;2023-04-23T04:17:50;3.30;;;0.22;;
26038;SDS011;13815;52.374;4.882;2023-04-23T04:20:15;0.00;;;0.00;;
26038;SDS011;13815;52.374;4.882;2023-04-23T04:22:42;0.00;;;0.00;;
26038;SDS011;13815;52.374;4.882;2023-04-23T04:25:07;2.90;;;0.25;;
26038;SDS011;13815;52.374;4.882;2023-04-23T04:27:33;0.00;;;0.00;;
26038;SDS011;13815;52.374;4.882;2023-04-23T04:29:59;0.00;;;0.00;;
26038;SDS011;13815;52.374;4.882;2023-04-23T04:32:29;0.00;;;0.00;;
26038;SDS011;13815;52.374;4.882;2023-04-23T04:34:55;0.00;;;0.00;;
26038;SDS011;13815;52.374;4.882;2023-04-23T04:37:21;0.00;;;0.00;;
26038;SDS011;13815;52.374;4.882;2023-04-23T04:39:46;0.00;;;0.00;;
26038;SDS011;13815;52.374;4.882;2023-04-23T04:42:12;3.13;;;0.22;;
26038;SDS011;13815;52.374;4.882;2023-04-23T04:44:37;0.00;;;0.00;;
26038;SDS011;13815;52.374;4.882;2023-04-23T04:47:02;0.00;;;0.00;;
26038;SDS011;13815;52.374;4.882;2023-04-23T04:49:28;2.85;;;0.20;;
26038;SDS011;13815;52.374;4.882;2023-04-23T04:51:53;0.00;;;0.00;;
26038;SDS011;13815;52.374;4.882;2023-04-23T04:54:19;0.00;;;0.00;;
26038;SDS011;13815;52.374;4.882;2023-04-23T04:56:45;0.00;;;0.00;;
26038;SDS011;13815;52.374;4.882;2023-04-23T04:59:10;0.00;;;0.00;;
26038;SDS011;13815;52.374;4.882;2023-04-23T05:01:36;0.00;;;0.00;;
26038;SDS011;13815;52.374;4.882;2023-04-23T05:04:02;6.20;;;0.52;;
26038;SDS011;13815;52.374;4.882;2023-04-23T05:06:27;0.00;;;0.00;;
26038;SDS011;13815;52.374;4.882;2023-04-23T05:08:53;0.00;;;0.00;;
26038;SDS011;13815;52.374;4.882;2023-04-23T05:11:18;0.00;;;0.00;;
26038;SDS011;13815;52.374;4.882;2023-04-23T05:13:45;0.00;;;0.00;;
26038;SDS011;13815;52.374;4.882;2023-04-23T05:16:11;3.10;;;0.22;;
26038;SDS011;13815;52.374;4.882;2023-04-23T05:18:36;0.00;;;0.00;;
26038;SDS011;13815;52.374;4.882;2023-04-23T05:21:02;2.35;;;0.20;;
26038;SDS011;13815;52.374;4.882;2023-04-23T05:23:27;0.00;;;0.00;;
26038;SDS011;13815;52.374;4.882;2023-04-23T05:25:53;0.00;;;0.00;;
26038;SDS011;13815;52.374;4.882;2023-04-23T05:28:20;0.00;;;0.00;;
26038;SDS011;13815;52.374;4.882;2023-04-23T05:30:46;4.97;;;0.43;;
26038;SDS011;13815;52.374;4.882;2023-04-23T05:33:11;0.00;;;0.00;;
26038;SDS011;13815;52.374;4.882;2023-04-23T05:35:37;0.10;;;0.00;;
26038;SDS011;13815;52.374;4.882;2023-04-23T05:38:02;2.55;;;0.20;;
26038;SDS011;13815;52.374;4.882;2023-04-23T05:40:28;0.00;;;0.00;;
26038;SDS011;13815;52.374;4.882;2023-04-23T05:42:55;3.10;;;0.22;;
26038;SDS011;13815;52.374;4.882;2023-04-23T05:45:22;0.00;;;0.00;;
26038;SDS011;13815;52.374;4.882;2023-04-23T05:47:47;0.00;;;0.00;;
26038;SDS011;13815;52.374;4.882;2023-04-23T05:50:13;0.00;;;0.00;;
26038;SDS011;13815;52.374;4.882;2023-04-23T05:52:38;0.00;;;0.00;;
26038;SDS011;13815;52.374;4.882;2023-04-23T05:55:04;0.00;;;0.00;;
26038;SDS011;13815;52.374;4.882;2023-04-23T05:57:30;0.00;;;0.00;;
26038;SDS011;13815;52.374;4.882;2023-04-23T05:59:56;0.00;;;0.00;;
26038;SDS011;13815;52.374;4.882;2023-04-23T06:02:21;2.55;;;0.20;;
26038;SDS011;13815;52.374;4.882;2023-04-23T06:04:47;1.00;;;0.10;;
26038;SDS011;13815;52.374;4.882;2023-04-23T06:07:12;4.40;;;0.38;;
26038;SDS011;13815;52.374;4.882;2023-04-23T06:09:39;2.70;;;0.25;;
26038;SDS011;13815;52.374;4.882;2023-04-23T06:12:05;0.00;;;0.00;;
26038;SDS011;13815;52.374;4.882;2023-04-23T06:14:30;0.00;;;0.00;;
26038;SDS011;13815;52.374;4.882;2023-04-23T06:16:55;2.72;;;0.22;;
26038;SDS011;13815;52.374;4.882;2023-04-23T06:19:21;0.00;;;0.00;;
26038;SDS011;13815;52.374;4.882;2023-04-23T06:21:49;0.00;;;0.00;;
26038;SDS011;13815;52.374;4.882;2023-04-23T06:24:15;0.00;;;0.00;;
26038;SDS011;13815;52.374;4.882;2023-04-23T06:26:40;0.00;;;0.00;;
26038;SDS011;13815;52.374;4.882;2023-04-23T06:29:05;2.35;;;0.20;;
26038;SDS011;13815;52.374;4.882;2023-04-23T06:31:31;0.00;;;0.00;;
26038;SDS011;13815;52.374;4.882;2023-04-23T06:33:56;0.00;;;0.00;;
26038;SDS011;13815;52.374;4.882;2023-04-23T06:36:21;3.30;;;0.25;;
26038;SDS011;13815;52.374;4.882;2023-04-23T06:38:47;0.00;;;0.00;;
26038;SDS011;13815;52.374;4.882;2023-04-23T06:41:12;0.00;;;0.00;;
26038;SDS011;13815;52.374;4.882;2023-04-23T06:43:37;3.72;;;0.35;;
26038;SDS011;13815;52.374;4.882;2023-04-23T06:46:03;0.00;;;0.00;;
26038;SDS011;13815;52.374;4.882;2023-04-23T06:48:28;0.00;;;0.00;;
26038;SDS011;13815;52.374;4.882;2023-04-23T06:50:56;3.22;;;0.22;;
26038;SDS011;13815;52.374;4.882;2023-04-23T06:53:21;0.00;;;0.00;;
26038;SDS011;13815;52.374;4.882;2023-04-23T06:55:47;0.00;;;0.00;;
26038;SDS011;13815;52.374;4.882;2023-04-23T06:58:14;0.00;;;0.00;;
26038;SDS011;13815;52.374;4.882;2023-04-23T07:00:39;0.00;;;0.00;;
26038;SDS011;13815;52.374;4.882;2023-04-23T07:03:05;0.00;;;0.00;;
26038;SDS011;13815;52.374;4.882;2023-04-23T07:05:31;1.90;;;0.30;;
26038;SDS011;13815;52.374;4.882;2023-04-23T07:07:56;0.00;;;0.00;;
26038;SDS011;13815;52.374;4.882;2023-04-23T07:10:21;0.00;;;0.00;;
26038;SDS011;13815;52.374;4.882;2023-04-23T07:12:47;0.05;;;0.05;;
26038;SDS011;13815;52.374;4.882;2023-04-23T07:15:12;2.65;;;0.30;;
26038;SDS011;13815;52.374;4.882;2023-04-23T07:17:38;2.63;;;0.32;;
26038;SDS011;13815;52.374;4.882;2023-04-23T07:20:03;0.10;;;0.10;;
26038;SDS011;13815;52.374;4.882;2023-04-23T07:22:30;3.00;;;0.35;;
26038;SDS011;13815;52.374;4.882;2023-04-23T07:24:56;0.10;;;0.10;;
26038;SDS011;13815;52.374;4.882;2023-04-23T07:27:21;0.00;;;0.00;;
26038;SDS011;13815;52.374;4.882;2023-04-23T07:29:47;2.85;;;0.30;;
26038;SDS011;13815;52.374;4.882;2023-04-23T07:32:12;0.10;;;0.10;;
26038;SDS011;13815;52.374;4.882;2023-04-23T07:34:37;0.10;;;0.10;;
26038;SDS011;13815;52.374;4.882;2023-04-23T07:37:03;1.52;;;0.25;;
26038;SDS011;13815;52.374;4.882;2023-04-23T07:39:28;0.10;;;0.10;;
26038;SDS011;13815;52.374;4.882;2023-04-23T07:41:54;0.28;;;0.28;;
26038;SDS011;13815;52.374;4.882;2023-04-23T07:44:20;0.10;;;0.10;;
26038;SDS011;13815;52.374;4.882;2023-04-23T07:46:46;0.10;;;0.10;;
26038;SDS011;13815;52.374;4.882;2023-04-23T07:49:11;3.83;;;0.68;;
26038;SDS011;13815;52.374;4.882;2023-04-23T07:51:36;4.03;;;1.17;;
26038;SDS011;13815;52.374;4.882;2023-04-23T07:54:02;1.85;;;1.52;;
26038;SDS011;13815;52.374;4.882;2023-04-23T07:56:27;9.65;;;1.27;;
26038;SDS011;13815;52.374;4.882;2023-04-23T07:58:56;0.30;;;0.30;;
26038;SDS011;13815;52.374;4.882;2023-04-23T08:01:22;0.30;;;0.30;;
26038;SDS011;13815;52.374;4.882;2023-04-23T08:03:47;7.07;;;1.27;;
26038;SDS011;13815;52.374;4.882;2023-04-23T08:06:13;0.30;;;0.30;;
26038;SDS011;13815;52.374;4.882;2023-04-23T08:08:38;0.30;;;0.30;;
26038;SDS011;13815;52.374;4.882;2023-04-23T08:11:06;3.03;;;0.63;;
26038;SDS011;13815;52.374;4.882;2023-04-23T08:13:32;0.40;;;0.40;;
26038;SDS011;13815;52.374;4.882;2023-04-23T08:15:57;0.40;;;0.40;;
26038;SDS011;13815;52.374;4.882;2023-04-23T08:18:23;0.40;;;0.40;;
26038;SDS011;13815;52.374;4.882;2023-04-23T08:20:48;0.40;;;0.40;;
26038;SDS011;13815;52.374;4.882;2023-04-23T08:23:14;3.10;;;0.80;;
26038;SDS011;13815;52.374;4.882;2023-04-23T08:25:39;2.75;;;1.10;;
26038;SDS011;13815;52.374;4.882;2023-04-23T08:28:05;0.98;;;0.98;;
26038;SDS011;13815;52.374;4.882;2023-04-23T08:30:30;6.45;;;1.77;;
26038;SDS011;13815;52.374;4.882;2023-04-23T08:32:56;1.20;;;1.20;;
26038;SDS011;13815;52.374;4.882;2023-04-23T08:35:24;3.25;;;1.58;;
26038;SDS011;13815;52.374;4.882;2023-04-23T08:37:50;6.22;;;2.38;;
26038;SDS011;13815;52.374;4.882;2023-04-23T08:40:15;2.30;;;2.30;;
26038;SDS011;13815;52.374;4.882;2023-04-23T08:45:08;2.30;;;2.30;;
26038;SDS011;13815;52.374;4.882;2023-04-23T08:47:34;2.83;;;2.83;;
26038;SDS011;13815;52.374;4.882;2023-04-23T08:50:00;3.90;;;3.80;;
26038;SDS011;13815;52.374;4.882;2023-04-23T08:52:26;4.40;;;4.30;;
26038;SDS011;13815;52.374;4.882;2023-04-23T08:54:53;6.47;;;6.28;;
26038;SDS011;13815;52.374;4.882;2023-04-23T08:59:52;11.15;;;10.75;;
26038;SDS011;13815;52.374;4.882;2023-04-23T09:02:17;12.85;;;11.73;;
26038;SDS011;13815;52.374;4.882;2023-04-23T09:04:43;13.57;;;13.07;;
26038;SDS011;13815;52.374;4.882;2023-04-23T09:07:09;14.00;;;13.40;;
26038;SDS011;13815;52.374;4.882;2023-04-23T09:09:35;15.40;;;14.50;;
26038;SDS011;13815;52.374;4.882;2023-04-23T09:12:01;14.88;;;14.07;;
26038;SDS011;13815;52.374;4.882;2023-04-23T09:14:26;15.93;;;15.13;;
26038;SDS011;13815;52.374;4.882;2023-04-23T09:16:52;17.83;;;16.48;;
26038;SDS011;13815;52.374;4.882;2023-04-23T09:19:17;17.95;;;16.75;;
26038;SDS011;13815;52.374;4.882;2023-04-23T09:21:43;19.30;;;17.52;;
26038;SDS011;13815;52.374;4.882;2023-04-23T09:24:10;18.67;;;17.38;;
26038;SDS011;13815;52.374;4.882;2023-04-23T09:26:36;19.05;;;17.65;;
26038;SDS011;13815;52.374;4.882;2023-04-23T09:29:12;20.45;;;18.52;;
26038;SDS011;13815;52.374;4.882;2023-04-23T09:31:48;19.88;;;18.27;;
26038;SDS011;13815;52.374;4.882;2023-04-23T09:34:18;19.67;;;18.08;;
26038;SDS011;13815;52.374;4.882;2023-04-23T09:36:45;20.42;;;18.63;;
26038;SDS011;13815;52.374;4.882;2023-04-23T09:39:13;21.98;;;19.58;;
26038;SDS011;13815;52.374;4.882;2023-04-23T09:41:39;25.60;;;20.90;;
26038;SDS011;13815;52.374;4.882;2023-04-23T09:44:05;21.15;;;19.05;;
26038;SDS011;13815;52.374;4.882;2023-04-23T09:46:32;24.20;;;21.60;;
26038;SDS011;13815;52.374;4.882;2023-04-23T09:48:59;22.88;;;20.58;;
26038;SDS011;13815;52.374;4.882;2023-04-23T09:51:25;22.58;;;20.23;;
26038;SDS011;13815;52.374;4.882;2023-04-23T09:53:53;24.05;;;20.60;;
26038;SDS011;13815;52.374;4.882;2023-04-23T09:56:18;22.52;;;20.13;;
26038;SDS011;13815;52.374;4.882;2023-04-23T09:58:44;23.27;;;20.75;;
26038;SDS011;13815;52.374;4.882;2023-04-23T10:01:10;23.42;;;20.55;;
26038;SDS011;13815;52.374;4.882;2023-04-23T10:03:40;22.40;;;19.48;;
26038;SDS011;13815;52.374;4.882;2023-04-23T10:06:06;24.77;;;20.45;;
26038;SDS011;13815;52.374;4.882;2023-04-23T10:08:32;25.33;;;20.85;;
26038;SDS011;13815;52.374;4.882;2023-04-23T10:10:57;28.02;;;21.15;;
26038;SDS011;13815;52.374;4.882;2023-04-23T10:13:22;28.88;;;21.23;;
26038;SDS011;13815;52.374;4.882;2023-04-23T10:15:51;26.17;;;21.35;;
26038;SDS011;13815;52.374;4.882;2023-04-23T10:18:16;26.63;;;21.58;;
26038;SDS011;13815;52.374;4.882;2023-04-23T10:20:44;27.92;;;22.05;;
26038;SDS011;13815;52.374;4.882;2023-04-23T10:23:10;28.20;;;22.30;;
26038;SDS011;13815;52.374;4.882;2023-04-23T10:25:35;31.25;;;22.73;;
26038;SDS011;13815;52.374;4.882;2023-04-23T10:28:03;28.73;;;23.15;;
26038;SDS011;13815;52.374;4.882;2023-04-23T10:30:28;28.15;;;22.50;;
26038;SDS011;13815;52.374;4.882;2023-04-23T10:32:55;32.15;;;23.33;;
26038;SDS011;13815;52.374;4.882;2023-04-23T10:35:21;28.83;;;22.95;;
26038;SDS011;13815;52.374;4.882;2023-04-23T10:37:46;30.13;;;24.08;;
26038;SDS011;13815;52.374;4.882;2023-04-23T10:40:18;33.75;;;24.77;;
26038;SDS011;13815;52.374;4.882;2023-04-23T10:42:45;30.42;;;24.13;;
26038;SDS011;13815;52.374;4.882;2023-04-23T10:45:12;31.15;;;24.85;;
26038;SDS011;13815;52.374;4.882;2023-04-23T10:47:40;31.83;;;25.05;;
26038;SDS011;13815;52.374;4.882;2023-04-23T10:52:51;32.45;;;25.25;;
26038;SDS011;13815;52.374;4.882;2023-04-23T10:55:18;33.92;;;25.50;;
26038;SDS011;13815;52.374;4.882;2023-04-23T11:00:23;33.22;;;26.50;;
26038;SDS011;13815;52.374;4.882;2023-04-23T11:02:49;34.55;;;25.73;;
26038;SDS011;13815;52.374;4.882;2023-04-23T11:05:16;30.83;;;25.15;;
26038;SDS011;13815;52.374;4.882;2023-04-23T11:07:43;34.78;;;25.95;;
26038;SDS011;13815;52.374;4.882;2023-04-23T11:10:26;31.88;;;25.67;;
26038;SDS011;13815;52.374;4.882;2023-04-23T11:12:54;32.63;;;26.13;;
26038;SDS011;13815;52.374;4.882;2023-04-23T11:15:20;33.08;;;26.88;;
26038;SDS011;13815;52.374;4.882;2023-04-23T11:20:13;31.95;;;26.50;;
26038;SDS011;13815;52.374;4.882;2023-04-23T11:22:44;32.47;;;26.08;;
26038;SDS011;13815;52.374;4.882;2023-04-23T11:25:11;32.92;;;27.65;;
26038;SDS011;13815;52.374;4.882;2023-04-23T11:27:37;35.70;;;27.55;;
26038;SDS011;13815;52.374;4.882;2023-04-23T11:30:04;31.83;;;26.88;;
26038;SDS011;13815;52.374;4.882;2023-04-23T11:32:42;32.60;;;26.90;;
26038;SDS011;13815;52.374;4.882;2023-04-23T11:35:08;34.00;;;26.52;;
26038;SDS011;13815;52.374;4.882;2023-04-23T11:37:38;34.05;;;28.40;;
26038;SDS011;13815;52.374;4.882;2023-04-23T11:40:05;32.88;;;28.48;;
26038;SDS011;13815;52.374;4.882;2023-04-23T11:42:41;35.28;;;29.52;;
26038;SDS011;13815;52.374;4.882;2023-04-23T11:47:51;36.03;;;28.50;;
26038;SDS011;13815;52.374;4.882;2023-04-23T11:50:30;37.95;;;28.13;;
26038;SDS011;13815;52.374;4.882;2023-04-23T11:52:57;33.47;;;28.10;;
26038;SDS011;13815;52.374;4.882;2023-04-23T11:55:28;37.00;;;28.05;;
26038;SDS011;13815;52.374;4.882;2023-04-23T11:57:53;33.17;;;27.35;;
26038;SDS011;13815;52.374;4.882;2023-04-23T12:00:19;42.50;;;29.60;;
26038;SDS011;13815;52.374;4.882;2023-04-23T12:02:49;35.10;;;29.70;;
26038;SDS011;13815;52.374;4.882;2023-04-23T12:05:19;34.70;;;28.95;;
26038;SDS011;13815;52.374;4.882;2023-04-23T12:08:16;34.03;;;28.40;;
26038;SDS011;13815;52.374;4.882;2023-04-23T12:10:49;36.97;;;27.88;;
26038;SDS011;13815;52.374;4.882;2023-04-23T12:13:22;32.65;;;27.30;;
26038;SDS011;13815;52.374;4.882;2023-04-23T12:15:56;36.55;;;27.90;;
26038;SDS011;13815;52.374;4.882;2023-04-23T12:18:33;33.60;;;27.40;;
26038;SDS011;13815;52.374;4.882;2023-04-23T12:21:04;44.45;;;27.60;;
26038;SDS011;13815;52.374;4.882;2023-04-23T12:23:30;30.88;;;25.10;;
26038;SDS011;13815;52.374;4.882;2023-04-23T12:25:56;28.00;;;24.30;;
26038;SDS011;13815;52.374;4.882;2023-04-23T12:28:23;30.58;;;24.33;;
26038;SDS011;13815;52.374;4.882;2023-04-23T12:30:48;24.20;;;21.60;;
26038;SDS011;13815;52.374;4.882;2023-04-23T12:33:14;25.65;;;22.58;;
26038;SDS011;13815;52.374;4.882;2023-04-23T12:38:06;32.42;;;25.23;;
26038;SDS011;13815;52.374;4.882;2023-04-23T12:40:32;34.10;;;25.33;;
26038;SDS011;13815;52.374;4.882;2023-04-23T12:42:58;29.98;;;25.13;;
26038;SDS011;13815;52.374;4.882;2023-04-23T12:45:23;30.80;;;25.80;;
26038;SDS011;13815;52.374;4.882;2023-04-23T12:47:50;41.67;;;27.60;;
26038;SDS011;13815;52.374;4.882;2023-04-23T12:50:15;33.75;;;27.85;;
26038;SDS011;13815;52.374;4.882;2023-04-23T12:52:41;34.90;;;29.02;;
26038;SDS011;13815;52.374;4.882;2023-04-23T12:55:06;39.83;;;30.10;;
26038;SDS011;13815;52.374;4.882;2023-04-23T12:57:32;34.97;;;28.45;;
26038;SDS011;13815;52.374;4.882;2023-04-23T12:59:57;38.63;;;29.15;;
26038;SDS011;13815;52.374;4.882;2023-04-23T13:02:23;39.13;;;29.25;;
26038;SDS011;13815;52.374;4.882;2023-04-23T13:04:48;33.95;;;26.45;;
26038;SDS011;13815;52.374;4.882;2023-04-23T13:07:14;40.20;;;27.80;;
26038;SDS011;13815;52.374;4.882;2023-04-23T13:09:39;35.28;;;28.00;;
26038;SDS011;13815;52.374;4.882;2023-04-23T13:12:05;36.00;;;28.45;;
26038;SDS011;13815;52.374;4.882;2023-04-23T13:14:31;40.83;;;29.73;;
26038;SDS011;13815;52.374;4.882;2023-04-23T13:16:56;37.00;;;29.13;;
26038;SDS011;13815;52.374;4.882;2023-04-23T13:19:22;35.80;;;27.92;;
26038;SDS011;13815;52.374;4.882;2023-04-23T13:21:48;38.45;;;27.00;;
26038;SDS011;13815;52.374;4.882;2023-04-23T13:24:13;36.92;;;28.83;;
26038;SDS011;13815;52.374;4.882;2023-04-23T13:26:39;36.85;;;28.05;;
26038;SDS011;13815;52.374;4.882;2023-04-23T13:29:04;48.17;;;29.90;;
26038;SDS011;13815;52.374;4.882;2023-04-23T13:31:30;38.60;;;29.00;;
26038;SDS011;13815;52.374;4.882;2023-04-23T13:33:58;38.95;;;30.00;;
26038;SDS011;13815;52.374;4.882;2023-04-23T13:36:25;41.47;;;28.77;;
26038;SDS011;13815;52.374;4.882;2023-04-23T13:38:50;40.35;;;29.55;;
26038;SDS011;13815;52.374;4.882;2023-04-23T13:41:16;50.28;;;31.60;;
26038;SDS011;13815;52.374;4.882;2023-04-23T13:43:41;40.35;;;29.77;;
26038;SDS011;13815;52.374;4.882;2023-04-23T13:46:07;41.08;;;30.60;;
26038;SDS011;13815;52.374;4.882;2023-04-23T13:48:35;53.15;;;31.35;;
26038;SDS011;13815;52.374;4.882;2023-04-23T13:51:03;34.20;;;27.63;;
26038;SDS011;13815;52.374;4.882;2023-04-23T13:53:29;37.65;;;27.30;;
26038;SDS011;13815;52.374;4.882;2023-04-23T13:55:55;33.17;;;24.25;;
26038;SDS011;13815;52.374;4.882;2023-04-23T13:58:21;32.53;;;25.45;;
26038;SDS011;13815;52.374;4.882;2023-04-23T14:00:47;31.75;;;24.50;;
26038;SDS011;13815;52.374;4.882;2023-04-23T14:03:12;29.77;;;24.35;;
26038;SDS011;13815;52.374;4.882;2023-04-23T14:05:38;23.10;;;20.60;;
26038;SDS011;13815;52.374;4.882;2023-04-23T14:08:03;23.10;;;20.77;;
26038;SDS011;13815;52.374;4.882;2023-04-23T14:10:29;24.60;;;21.70;;
26038;SDS011;13815;52.374;4.882;2023-04-23T14:12:55;22.83;;;20.52;;
26038;SDS011;13815;52.374;4.882;2023-04-23T14:15:20;22.95;;;19.77;;
26038;SDS011;13815;52.374;4.882;2023-04-23T14:17:46;21.00;;;19.10;;
26038;SDS011;13815;52.374;4.882;2023-04-23T14:20:11;19.95;;;18.25;;
26038;SDS011;13815;52.374;4.882;2023-04-23T14:22:39;19.00;;;17.50;;
26038;SDS011;13815;52.374;4.882;2023-04-23T14:25:09;16.90;;;15.70;;
26038;SDS011;13815;52.374;4.882;2023-04-23T14:30:06;16.60;;;15.50;;
26038;SDS011;13815;52.374;4.882;2023-04-23T14:32:38;16.05;;;15.05;;
26038;SDS011;13815;52.374;4.882;2023-04-23T14:35:04;16.23;;;15.10;;
26038;SDS011;13815;52.374;4.882;2023-04-23T14:37:29;15.20;;;14.30;;
26038;SDS011;13815;52.374;4.882;2023-04-23T14:39:55;15.70;;;14.70;;
26038;SDS011;13815;52.374;4.882;2023-04-23T14:42:20;15.38;;;14.48;;
26038;SDS011;13815;52.374;4.882;2023-04-23T14:44:46;15.05;;;14.23;;
26038;SDS011;13815;52.374;4.882;2023-04-23T14:47:11;14.50;;;13.75;;
26038;SDS011;13815;52.374;4.882;2023-04-23T14:49:36;14.23;;;13.52;;
26038;SDS011;13815;52.374;4.882;2023-04-23T14:52:02;14.18;;;13.48;;
26038;SDS011;13815;52.374;4.882;2023-04-23T14:54:27;13.57;;;12.98;;